createdAt,value
2019-02-28T00:01:03.848Z,6.49
2019-02-28T00:03:32.782Z,6.39
2019-02-28T00:06:01.168Z,6.30
2019-02-28T00:08:29.564Z,6.31
2019-02-28T00:10:57.958Z,6.29
2019-02-28T00:13:26.618Z,6.33
2019-02-28T00:15:55.243Z,6.25
2019-02-28T00:18:23.975Z,6.19
2019-02-28T00:20:52.672Z,6.07
2019-02-28T00:23:22.020Z,6.39
2019-02-28T00:25:51.777Z,6.36
2019-02-28T00:28:23.083Z,6.09
2019-02-28T00:30:50.503Z,5.90
2019-02-28T00:33:18.899Z,5.73
2019-02-28T00:35:47.279Z,5.65
2019-02-28T00:38:15.679Z,5.50
2019-02-28T00:40:44.074Z,5.50
2019-02-28T00:43:12.779Z,5.57
2019-02-28T00:45:41.175Z,5.42
2019-02-28T00:48:09.563Z,5.35
2019-02-28T00:50:37.956Z,5.37
2019-02-28T00:53:07.365Z,5.31
2019-02-28T00:55:36.462Z,5.36
2019-02-28T00:58:05.171Z,5.52
2019-02-28T01:00:37.045Z,5.60
2019-02-28T01:03:03.695Z,5.61
2019-02-28T01:05:32.086Z,5.47
2019-02-28T01:08:00.766Z,5.50
2019-02-28T01:11:10.421Z,5.44
2019-02-28T01:14:01.595Z,5.57
2019-02-28T01:16:28.635Z,5.66
2019-02-28T01:18:57.078Z,5.57
2019-02-28T01:21:25.714Z,5.48
2019-02-28T01:23:54.427Z,5.45
2019-02-28T01:26:22.835Z,5.40
2019-02-28T01:28:51.492Z,5.46
2019-02-28T01:31:20.182Z,5.43
2019-02-28T01:33:48.583Z,5.34
2019-02-28T01:36:16.985Z,5.34
2019-02-28T01:38:45.383Z,5.43
2019-02-28T01:41:14.102Z,5.39
2019-02-28T01:43:42.496Z,5.27
2019-02-28T01:46:10.898Z,5.24
2019-02-28T01:48:39.292Z,5.18
2019-02-28T01:51:07.760Z,5.21
2019-02-28T01:53:36.151Z,5.24
2019-02-28T01:56:04.786Z,5.25
2019-02-28T01:58:33.467Z,5.38
2019-02-28T02:04:12.595Z,5.31
2019-02-28T02:06:40.122Z,5.24
2019-02-28T02:09:48.437Z,5.21
2019-02-28T02:12:16.866Z,5.17
2019-02-28T02:14:45.815Z,5.33
2019-02-28T02:17:15.775Z,5.35
2019-02-28T02:19:44.167Z,5.31
2019-02-28T02:22:12.847Z,5.23
2019-02-28T02:24:41.244Z,5.22
2019-02-28T02:27:09.911Z,5.27
2019-02-28T02:29:38.316Z,5.24
2019-02-28T02:32:06.955Z,5.43
2019-02-28T02:34:35.346Z,5.50
2019-02-28T02:37:03.744Z,5.48
2019-02-28T02:39:32.419Z,5.38
2019-02-28T02:42:01.103Z,5.23
2019-02-28T02:44:31.823Z,5.30
2019-02-28T02:46:59.925Z,5.23
2019-02-28T02:49:28.308Z,5.17
2019-02-28T02:51:56.720Z,5.21
2019-02-28T02:54:25.396Z,5.06
2019-02-28T02:56:54.046Z,4.98
2019-02-28T02:59:22.444Z,4.94
2019-02-28T03:01:50.837Z,4.84
2019-02-28T03:04:22.945Z,4.76
2019-02-28T03:06:49.704Z,4.79
2019-02-28T03:09:18.108Z,4.70
2019-02-28T03:11:46.492Z,4.68
2019-02-28T03:14:16.421Z,4.68
2019-02-28T03:16:45.249Z,4.66
2019-02-28T03:19:13.951Z,4.76
2019-02-28T03:21:42.348Z,4.75
2019-02-28T03:24:14.613Z,4.69
2019-02-28T03:26:42.002Z,4.70
2019-02-28T03:29:11.277Z,4.62
2019-02-28T03:31:39.951Z,4.61
2019-02-28T03:34:12.920Z,4.61
2019-02-28T03:36:38.700Z,4.66
2019-02-28T03:39:47.236Z,4.64
2019-02-28T03:42:15.653Z,4.64
2019-02-28T03:44:44.330Z,4.65
2019-02-28T03:47:12.739Z,4.56
2019-02-28T03:49:48.391Z,4.64
2019-02-28T03:52:11.247Z,4.64
2019-02-28T03:54:39.651Z,4.58
2019-02-28T03:57:08.182Z,4.50
2019-02-28T03:59:36.589Z,4.49
2019-02-28T04:02:04.980Z,4.46
2019-02-28T04:04:33.448Z,4.48
2019-02-28T04:07:02.225Z,4.55
2019-02-28T04:09:30.889Z,4.51
2019-02-28T04:12:06.982Z,4.42
2019-02-28T04:14:33.038Z,4.49
2019-02-28T04:16:59.813Z,4.41
2019-02-28T04:19:28.278Z,4.39
2019-02-28T04:21:56.667Z,4.42
2019-02-28T04:24:25.085Z,4.43
2019-02-28T04:26:53.731Z,4.42
2019-02-28T04:29:26.277Z,4.40
2019-02-28T04:31:52.851Z,4.44
2019-02-28T04:34:21.244Z,4.36
2019-02-28T04:36:49.648Z,4.37
2019-02-28T04:39:18.288Z,4.35
2019-02-28T04:41:46.696Z,4.33
2019-02-28T04:44:15.401Z,4.40
2019-02-28T04:46:45.209Z,4.51
2019-02-28T04:49:13.844Z,4.62
2019-02-28T04:51:42.231Z,4.45
2019-02-28T04:54:10.634Z,4.39
2019-02-28T04:56:39.032Z,4.37
2019-02-28T04:59:07.437Z,4.38
2019-02-28T05:01:36.156Z,4.30
2019-02-28T05:04:04.546Z,4.29
2019-02-28T05:06:33.219Z,4.29
2019-02-28T05:09:01.860Z,4.23
2019-02-28T05:11:31.464Z,4.24
2019-02-28T05:14:01.058Z,4.24
2019-02-28T05:16:29.702Z,4.25
2019-02-28T05:19:01.419Z,4.21
2019-02-28T05:21:50.668Z,4.19
2019-02-28T05:24:18.010Z,4.26
2019-02-28T05:26:46.666Z,4.24
2019-02-28T05:29:15.292Z,4.23
2019-02-28T05:31:43.708Z,4.16
2019-02-28T05:34:13.165Z,4.10
2019-02-28T05:36:42.453Z,4.08
2019-02-28T05:39:31.011Z,4.18
2019-02-28T05:42:00.303Z,4.18
2019-02-28T05:44:28.695Z,4.05
2019-02-28T05:46:58.097Z,3.93
2019-02-28T05:49:27.213Z,3.90
2019-02-28T05:51:58.687Z,3.86
2019-02-28T05:54:25.709Z,3.84
2019-02-28T05:56:54.120Z,3.81
2019-02-28T05:59:26.005Z,3.81
2019-02-28T06:01:52.624Z,3.79
2019-02-28T06:04:21.016Z,3.78
2019-02-28T06:06:51.485Z,3.86
2019-02-28T06:09:19.545Z,3.82
2019-02-28T06:11:48.182Z,3.85
2019-02-28T06:14:16.895Z,3.90
2019-02-28T06:16:46.721Z,3.91
2019-02-28T06:22:10.699Z,3.93
2019-02-28T06:24:39.092Z,3.97
2019-02-28T06:27:07.658Z,3.93
2019-02-28T06:29:36.778Z,4.00
2019-02-28T06:32:06.194Z,4.09
2019-02-28T06:34:34.582Z,4.24
2019-02-28T06:37:03.688Z,4.31
2019-02-28T06:39:33.105Z,4.30
2019-02-28T06:42:01.482Z,4.32
2019-02-28T06:44:29.888Z,4.61
2019-02-28T06:46:58.514Z,4.63
2019-02-28T06:49:27.167Z,4.75
2019-02-28T06:51:55.851Z,4.81
2019-02-28T06:54:24.539Z,4.82
2019-02-28T06:56:54.031Z,4.92
2019-02-28T06:59:23.088Z,5.09
2019-02-28T07:01:56.195Z,5.11
2019-02-28T07:04:21.851Z,5.33
2019-02-28T07:06:50.475Z,5.27
2019-02-28T07:09:18.880Z,5.37
2019-02-28T07:11:47.502Z,5.52
2019-02-28T07:14:15.900Z,5.62
2019-02-28T07:16:44.307Z,5.70
2019-02-28T07:19:12.935Z,5.86
2019-02-28T07:21:43.873Z,5.99
2019-02-28T07:24:11.691Z,5.97
2019-02-28T07:26:40.338Z,6.08
2019-02-28T07:29:28.069Z,6.13
2019-02-28T07:31:59.960Z,6.19
2019-02-28T07:34:26.583Z,6.32
2019-02-28T07:36:55.241Z,6.47
2019-02-28T07:39:23.650Z,6.51
2019-02-28T07:41:52.030Z,6.53
2019-02-28T07:44:22.218Z,6.57
2019-02-28T07:46:50.807Z,6.63
2019-02-28T07:49:19.486Z,6.68
2019-02-28T07:51:47.888Z,6.91
2019-02-28T07:54:16.691Z,7.12
2019-02-28T07:56:46.370Z,7.18
2019-02-28T07:59:14.994Z,7.32
2019-02-28T08:01:43.451Z,7.47
2019-02-28T08:04:11.859Z,7.48
2019-02-28T08:06:40.489Z,7.59
2019-02-28T08:09:30.287Z,7.65
2019-02-28T08:11:58.656Z,7.89
2019-02-28T08:14:27.047Z,8.02
2019-02-28T08:16:55.820Z,8.24
2019-02-28T08:19:27.178Z,8.48
2019-02-28T08:21:54.627Z,8.40
2019-02-28T08:24:23.010Z,8.48
2019-02-28T08:26:53.510Z,8.57
2019-02-28T08:29:22.049Z,8.72
2019-02-28T08:31:50.464Z,8.93
2019-02-28T08:34:20.571Z,9.10
2019-02-28T08:36:49.507Z,9.36
2019-02-28T08:39:57.818Z,9.19
2019-02-28T08:42:26.438Z,9.21
2019-02-28T08:44:58.950Z,9.34
2019-02-28T08:47:25.456Z,9.44
2019-02-28T08:49:53.834Z,9.44
2019-02-28T08:52:22.480Z,9.53
2019-02-28T08:54:50.863Z,9.63
2019-02-28T08:57:22.018Z,9.71
2019-02-28T08:59:49.364Z,9.84
2019-02-28T09:02:18.979Z,10.01
2019-02-28T09:04:50.853Z,10.13
2019-02-28T09:07:18.511Z,10.29
2019-02-28T09:09:46.895Z,10.56
2019-02-28T09:12:15.295Z,10.91
2019-02-28T09:14:43.932Z,11.19
2019-02-28T09:17:12.336Z,11.29
2019-02-28T09:20:00.352Z,11.47
2019-02-28T09:23:08.920Z,11.30
2019-02-28T09:25:37.305Z,11.45
2019-02-28T09:28:47.503Z,11.73
2019-02-28T09:31:15.981Z,12.18
2019-02-28T09:33:44.683Z,12.07
2019-02-28T09:36:32.419Z,12.62
2019-02-28T09:39:00.811Z,12.62
2019-02-28T09:41:29.218Z,13.35
2019-02-28T09:44:00.206Z,13.45
2019-02-28T09:46:28.206Z,13.86
2019-02-28T09:48:56.859Z,14.14
2019-02-28T09:51:44.584Z,14.22
2019-02-28T09:54:13.052Z,14.22
2019-02-28T09:57:01.235Z,14.73
2019-02-28T09:59:29.604Z,14.73
2019-02-28T10:02:17.636Z,14.97
2019-02-28T10:04:46.040Z,15.09
2019-02-28T10:07:14.435Z,15.14
2019-02-28T10:09:44.354Z,15.19
2019-02-28T10:12:13.204Z,15.49
2019-02-28T10:14:41.610Z,15.63
2019-02-28T10:17:10.046Z,15.69
2019-02-28T10:19:45.575Z,15.87
2019-02-28T10:22:10.102Z,16.02
2019-02-28T10:24:39.291Z,16.22
2019-02-28T10:27:07.975Z,16.33
2019-02-28T10:29:38.456Z,16.33
2019-02-28T10:32:08.961Z,16.35
2019-02-28T10:34:36.897Z,16.36
2019-02-28T10:37:05.292Z,16.37
2019-02-28T10:39:33.676Z,16.54
2019-02-28T10:42:05.213Z,16.54
2019-02-28T10:44:32.456Z,16.68
2019-02-28T10:47:01.155Z,16.71
2019-02-28T10:49:29.554Z,16.78
2019-02-28T10:51:58.216Z,16.86
2019-02-28T10:54:26.913Z,16.92
2019-02-28T10:56:55.536Z,16.94
2019-02-28T10:59:24.500Z,16.96
2019-02-28T11:01:54.595Z,17.04
2019-02-28T11:04:23.288Z,17.23
2019-02-28T11:06:51.967Z,17.27
2019-02-28T11:09:21.408Z,17.39
2019-02-28T11:11:50.533Z,17.48
2019-02-28T11:14:18.928Z,17.59
2019-02-28T11:16:47.632Z,17.56
2019-02-28T11:19:18.631Z,17.56
2019-02-28T11:21:46.440Z,17.75
2019-02-28T11:24:14.965Z,17.72
2019-02-28T11:26:44.887Z,17.73
2019-02-28T11:29:13.839Z,17.89
2019-02-28T11:31:42.616Z,17.91
2019-02-28T11:34:14.787Z,17.90
2019-02-28T11:36:41.516Z,17.79
2019-02-28T11:39:50.116Z,17.79
2019-02-28T11:42:18.727Z,17.79
2019-02-28T11:44:47.706Z,17.75
2019-02-28T11:47:17.244Z,17.88
2019-02-28T11:49:45.717Z,17.89
2019-02-28T11:52:15.953Z,18.01
2019-02-28T11:54:45.331Z,18.13
2019-02-28T11:57:15.354Z,18.15
2019-02-28T11:59:43.744Z,18.27
2019-02-28T12:02:12.148Z,18.18
2019-02-28T12:04:41.198Z,18.23
2019-02-28T12:07:10.660Z,18.32
2019-02-28T12:09:39.055Z,18.35
2019-02-28T12:12:10.415Z,18.29
2019-02-28T12:14:37.636Z,18.51
2019-02-28T12:17:06.393Z,18.67
2019-02-28T12:19:35.062Z,18.47
2019-02-28T12:22:03.754Z,18.51
2019-02-28T12:24:33.181Z,18.61
2019-02-28T12:27:04.101Z,18.48
2019-02-28T12:29:32.991Z,18.65
2019-02-28T12:32:01.666Z,18.66
2019-02-28T12:34:30.085Z,18.76
2019-02-28T12:36:59.875Z,18.93
2019-02-28T12:39:28.865Z,18.83
2019-02-28T12:41:59.514Z,18.73
2019-02-28T12:44:27.771Z,18.52
2019-02-28T12:46:56.154Z,18.57
2019-02-28T12:49:26.162Z,18.49
2019-02-28T12:51:55.470Z,18.45
2019-02-28T12:54:25.964Z,18.45
2019-02-28T12:56:54.238Z,18.41
2019-02-28T12:59:46.046Z,18.37
2019-02-28T13:02:12.398Z,18.36
2019-02-28T13:05:00.470Z,18.22
2019-02-28T13:07:30.424Z,18.18
2019-02-28T13:09:59.673Z,18.27
2019-02-28T13:12:28.296Z,18.19
2019-02-28T13:14:57.153Z,18.12
2019-02-28T13:17:28.324Z,18.17
2019-02-28T13:19:56.563Z,18.24
2019-02-28T13:22:26.076Z,18.23
2019-02-28T13:24:54.630Z,18.16
2019-02-28T13:27:23.276Z,18.25
2019-02-28T13:29:53.226Z,18.14
2019-02-28T13:32:22.044Z,18.17
2019-02-28T13:34:50.453Z,18.12
2019-02-28T13:37:18.839Z,18.11
2019-02-28T13:39:47.242Z,18.19
2019-02-28T13:42:15.968Z,18.24
2019-02-28T13:44:44.371Z,18.20
2019-02-28T13:47:13.152Z,18.23
2019-02-28T13:49:41.821Z,18.24
2019-02-28T13:52:10.292Z,18.21
2019-02-28T13:54:42.148Z,18.28
2019-02-28T13:57:10.033Z,18.24
2019-02-28T13:59:39.253Z,18.28
2019-02-28T14:02:07.617Z,18.22
2019-02-28T14:04:36.016Z,18.22
2019-02-28T14:07:04.674Z,18.26
2019-02-28T14:09:33.315Z,18.26
2019-02-28T14:12:01.773Z,18.14
2019-02-28T14:14:30.161Z,18.08
2019-02-28T14:17:01.322Z,18.07
2019-02-28T14:19:28.738Z,18.04
2019-02-28T14:21:57.150Z,17.99
2019-02-28T14:24:27.507Z,18.10
2019-02-28T14:26:55.993Z,18.10
2019-02-28T14:29:24.586Z,18.07
2019-02-28T14:31:52.983Z,18.06
2019-02-28T14:34:21.458Z,18.12
2019-02-28T14:36:49.848Z,18.15
2019-02-28T14:39:18.234Z,18.09
2019-02-28T14:41:46.890Z,18.04
2019-02-28T14:44:15.585Z,18.14
2019-02-28T14:46:43.989Z,18.13
2019-02-28T14:49:13.401Z,18.11
2019-02-28T14:51:42.756Z,18.10
2019-02-28T14:54:11.445Z,18.12
2019-02-28T14:56:42.246Z,18.14
2019-02-28T14:59:10.556Z,18.07
2019-02-28T15:01:39.249Z,18.12
2019-02-28T15:04:08.716Z,18.02
2019-02-28T15:06:38.129Z,17.98
2019-02-28T15:09:46.416Z,17.94
2019-02-28T15:12:14.817Z,17.94
2019-02-28T15:15:02.544Z,17.96
2019-02-28T15:17:38.712Z,17.91
2019-02-28T15:20:47.808Z,17.84
2019-02-28T15:23:16.556Z,17.85
2019-02-28T15:25:44.949Z,17.83
2019-02-28T15:28:13.926Z,17.78
2019-02-28T15:30:43.526Z,17.89
2019-02-28T15:33:12.224Z,17.85
2019-02-28T15:35:40.627Z,17.79
2019-02-28T15:38:10.434Z,17.81
2019-02-28T15:41:19.348Z,17.84
2019-02-28T15:43:50.318Z,17.73
2019-02-28T15:46:18.149Z,17.62
2019-02-28T15:48:46.836Z,17.50
2019-02-28T15:51:34.876Z,17.26
2019-02-28T15:54:25.177Z,17.15
2019-02-28T15:56:55.390Z,17.05
2019-02-28T15:59:23.392Z,16.91
2019-02-28T16:01:52.149Z,16.77
2019-02-28T16:04:23.535Z,16.77
2019-02-28T16:06:56.629Z,16.75
2019-02-28T16:09:21.401Z,16.61
2019-02-28T16:11:50.953Z,16.56
2019-02-28T16:14:19.337Z,16.44
2019-02-28T16:16:47.738Z,16.29
2019-02-28T16:19:35.468Z,16.15
2019-02-28T16:22:04.164Z,16.13
2019-02-28T16:24:32.852Z,16.10
2019-02-28T16:27:01.253Z,15.96
2019-02-28T16:29:29.912Z,15.88
2019-02-28T16:32:14.121Z,15.76
2019-02-28T16:34:42.471Z,15.56
2019-02-28T16:37:11.135Z,15.48
2019-02-28T16:39:39.533Z,15.38
2019-02-28T16:42:08.402Z,15.38
2019-02-28T16:44:38.312Z,15.30
2019-02-28T16:47:06.716Z,15.18
2019-02-28T16:49:35.101Z,15.15
2019-02-28T16:52:06.074Z,15.11
2019-02-28T16:54:33.975Z,14.89
2019-02-28T16:57:21.700Z,14.86
2019-02-28T16:59:50.409Z,14.86
2019-02-28T17:02:18.787Z,14.72
2019-02-28T17:05:28.356Z,14.59
2019-02-28T17:08:37.230Z,14.59
2019-02-28T17:11:05.932Z,14.67
2019-02-28T17:17:02.109Z,14.58
2019-02-28T17:19:49.858Z,14.39
2019-02-28T17:22:18.240Z,14.35
2019-02-28T17:25:06.543Z,14.24
2019-02-28T17:33:22.568Z,14.15
2019-02-28T17:35:51.259Z,14.04
2019-02-28T17:38:39.013Z,13.87
2019-02-28T17:41:07.432Z,13.77
2019-02-28T17:44:15.732Z,13.77
2019-02-28T17:47:25.690Z,13.72
2019-02-28T17:50:34.116Z,13.61
2019-02-28T17:53:45.713Z,13.46
2019-02-28T17:56:51.114Z,13.34
2019-02-28T17:59:58.088Z,13.34
2019-02-28T18:03:06.442Z,13.30
2019-02-28T18:06:13.662Z,13.22
2019-02-28T18:09:20.650Z,12.98
2019-02-28T18:12:44.246Z,12.97
2019-02-28T18:15:37.701Z,12.97
2019-02-28T18:18:44.689Z,12.85
2019-02-28T18:21:53.222Z,12.73
2019-02-28T18:25:01.819Z,12.56
2019-02-28T18:28:08.808Z,12.44
2019-02-28T18:31:19.249Z,12.29
2019-02-28T18:34:05.487Z,12.22
2019-02-28T18:36:34.268Z,12.17
2019-02-28T18:39:22.324Z,12.08
2019-02-28T18:41:50.891Z,11.99
2019-02-28T18:44:19.284Z,11.95
2019-02-28T18:46:48.902Z,11.97
2019-02-28T18:49:37.424Z,11.97
2019-02-28T18:52:05.829Z,11.93
2019-02-28T18:54:34.490Z,12.01
2019-02-28T18:57:02.880Z,12.00
2019-02-28T18:59:31.557Z,12.00
2019-02-28T19:01:59.946Z,11.95
2019-02-28T19:04:47.683Z,11.98
2019-02-28T19:07:16.352Z,11.93
2019-02-28T19:09:44.756Z,11.90
2019-02-28T19:12:13.403Z,11.86
2019-02-28T19:14:42.108Z,11.79
2019-02-28T19:17:10.505Z,11.74
2019-02-28T19:19:39.173Z,11.70
2019-02-28T19:22:07.572Z,11.71
2019-02-28T19:24:55.588Z,11.74
2019-02-28T19:27:24.276Z,11.65
2019-02-28T19:29:52.661Z,11.72
2019-02-28T19:32:21.284Z,11.76
2019-02-28T19:34:49.684Z,11.78
2019-02-28T19:37:18.067Z,11.77
2019-02-28T19:39:46.714Z,11.79
2019-02-28T19:42:15.094Z,11.82
2019-02-28T19:44:43.739Z,11.72
2019-02-28T19:47:12.135Z,11.77
2019-02-28T19:49:40.820Z,11.69
2019-02-28T19:52:09.493Z,11.71
2019-02-28T19:54:37.877Z,11.67
2019-02-28T19:57:06.554Z,11.69
2019-02-28T19:59:35.250Z,11.62
2019-02-28T20:02:03.714Z,11.54
2019-02-28T20:04:32.093Z,11.41
2019-02-28T20:07:00.789Z,11.34
2019-02-28T20:09:29.471Z,11.32
2019-02-28T20:11:57.924Z,11.26
2019-02-28T20:14:26.654Z,11.18
2019-02-28T20:16:55.343Z,11.22
2019-02-28T20:19:24.012Z,11.13
2019-02-28T20:21:52.802Z,11.05
2019-02-28T20:24:21.242Z,10.99
2019-02-28T20:29:44.982Z,11.18
2019-02-28T20:32:13.761Z,11.17
2019-02-28T20:34:42.142Z,11.21
2019-02-28T20:37:10.846Z,11.24
2019-02-28T20:39:39.207Z,11.23
2019-02-28T20:42:07.657Z,11.28
2019-02-28T20:44:36.367Z,11.28
2019-02-28T20:47:05.159Z,11.23
2019-02-28T20:49:33.565Z,11.19
2019-02-28T20:52:01.935Z,11.29
2019-02-28T20:54:30.333Z,11.28
2019-02-28T20:56:58.787Z,11.27
2019-02-28T20:59:27.167Z,11.29
2019-02-28T21:01:55.584Z,11.30
2019-02-28T21:04:23.959Z,11.29
2019-02-28T21:06:52.702Z,11.31
2019-02-28T21:09:21.086Z,11.21
2019-02-28T21:11:49.867Z,11.17
2019-02-28T21:14:18.307Z,11.21
2019-02-28T21:16:47.039Z,11.25
2019-02-28T21:19:15.719Z,11.21
2019-02-28T21:22:24.265Z,11.20
2019-02-28T21:24:52.888Z,11.15
2019-02-28T21:27:21.267Z,11.16
2019-02-28T21:29:49.667Z,11.11
2019-02-28T21:32:18.049Z,11.22
2019-02-28T21:34:46.748Z,11.16
2019-02-28T21:37:15.435Z,11.16
2019-02-28T21:39:44.121Z,11.18
2019-02-28T21:42:12.596Z,11.16
2019-02-28T21:44:40.955Z,11.15
2019-02-28T21:47:09.664Z,11.16
2019-02-28T21:49:38.289Z,11.10
2019-02-28T21:52:06.736Z,11.09
2019-02-28T21:54:35.119Z,11.14
2019-02-28T21:57:22.887Z,11.14
2019-02-28T21:59:51.533Z,11.15
2019-02-28T22:02:20.214Z,11.16
2019-02-28T22:04:48.611Z,11.08
2019-02-28T22:07:17.291Z,11.15
2019-02-28T22:09:45.693Z,11.10
2019-02-28T22:12:14.072Z,11.14
2019-02-28T22:14:42.454Z,11.13
2019-02-28T22:17:10.854Z,11.14
2019-02-28T22:19:39.236Z,11.12
2019-02-28T22:22:07.635Z,11.11
2019-02-28T22:24:36.020Z,11.11
2019-02-28T22:27:04.486Z,11.08
2019-02-28T22:29:32.878Z,11.05
2019-02-28T22:37:29.835Z,11.00
2019-02-28T22:39:58.231Z,10.96
2019-02-28T22:42:26.623Z,10.97
2019-02-28T22:44:55.016Z,11.00
2019-02-28T22:47:23.399Z,10.92
2019-02-28T22:49:52.024Z,10.96
2019-02-28T22:52:20.760Z,10.95
2019-02-28T22:54:49.449Z,10.88
2019-02-28T22:57:18.133Z,10.86
2019-02-28T22:59:46.821Z,10.83
2019-02-28T23:02:15.222Z,10.78
2019-02-28T23:04:43.606Z,10.72
2019-02-28T23:07:12.003Z,10.70
2019-02-28T23:09:40.390Z,10.67
2019-02-28T23:12:08.766Z,10.66
2019-02-28T23:14:37.162Z,10.65
2019-02-28T23:17:05.534Z,10.60
2019-02-28T23:19:33.940Z,10.62
2019-02-28T23:22:02.316Z,10.52
2019-02-28T23:24:30.695Z,10.44
2019-02-28T23:27:18.427Z,10.43
2019-02-28T23:30:26.743Z,10.30
2019-02-28T23:33:14.889Z,10.26
2019-02-28T23:35:43.292Z,10.21
2019-02-28T23:38:11.672Z,10.19
2019-02-28T23:40:40.339Z,10.08
2019-02-28T23:43:08.727Z,10.09
2019-02-28T23:45:37.162Z,10.00
2019-02-28T23:48:05.632Z,10.09
2019-02-28T23:50:34.016Z,10.11
2019-02-28T23:53:02.407Z,9.97
2019-02-28T23:55:30.791Z,9.79
2019-02-28T23:57:59.195Z,9.62
